Time;durP1;ratioP1;P1;durP2;ratioP2;P2;SDS_P1;SDS_P2;PMS_P1;PMS_P2;Temp;Humidity;BMP_temperature;BMP_pressure;BME280_temperature;BME280_humidity;BME280_pressure;Samples;Min_cycle;Max_cycle;Signal;HPM_P1;HPM_P2
2021/10/19 00:01:30;;;;;;;14.50;13.00;;;14.80;99.90;;;;;;5051262;28;20933;-68
2021/10/19 00:03:56;;;;;;;16.10;14.40;;;14.80;99.90;;;;;;5051338;28;20531;-78
2021/10/19 00:06:22;;;;;;;17.33;13.53;;;14.80;99.90;;;;;;5051216;28;20183;-68
2021/10/19 00:08:48;;;;;;;14.80;13.13;;;14.80;99.90;;;;;;5051444;28;20301;-68
2021/10/19 00:11:14;;;;;;;15.43;13.43;;;14.80;99.90;;;;;;5050717;28;20495;-68
2021/10/19 00:13:41;;;;;;;14.03;12.63;;;14.90;99.90;;;;;;5052631;28;20175;-68
2021/10/19 00:16:08;;;;;;;13.20;11.90;;;14.90;99.90;;;;;;5054610;28;20418;-68
2021/10/19 00:18:35;;;;;;;15.40;13.70;;;14.90;99.90;;;;;;5055545;28;20449;-68
2021/10/19 00:21:00;;;;;;;14.70;13.30;;;14.90;99.90;;;;;;5054332;28;20415;-69
2021/10/19 00:23:27;;;;;;;14.97;13.10;;;14.90;99.90;;;;;;5055202;28;20488;-68
2021/10/19 00:25:53;;;;;;;14.83;13.30;;;14.90;99.90;;;;;;5055277;28;20592;-68
2021/10/19 00:28:18;;;;;;;13.67;12.13;;;14.90;99.90;;;;;;5054297;28;20486;-68
2021/10/19 00:30:44;;;;;;;12.30;11.10;;;14.90;99.90;;;;;;5055125;28;20180;-68
2021/10/19 00:33:10;;;;;;;14.17;12.77;;;14.90;99.90;;;;;;5053890;28;20279;-68
2021/10/19 00:35:35;;;;;;;13.70;12.40;;;14.90;99.90;;;;;;5054748;28;20192;-68
2021/10/19 00:38:01;;;;;;;19.37;14.00;;;14.90;99.90;;;;;;5054301;28;20181;-68
2021/10/19 00:40:27;;;;;;;15.00;13.60;;;14.90;99.90;;;;;;5055006;28;20201;-68
2021/10/19 00:42:53;;;;;;;15.60;14.10;;;14.90;99.90;;;;;;5054979;28;20265;-68
2021/10/19 00:45:18;;;;;;;17.50;14.80;;;14.90;99.90;;;;;;5053795;28;20222;-68
2021/10/19 00:47:49;;;;;;;14.87;13.47;;;14.90;99.90;;;;;;5054479;28;20591;-68
2021/10/19 00:50:17;;;;;;;15.23;13.73;;;14.90;99.90;;;;;;5054106;28;20271;-68
2021/10/19 00:52:43;;;;;;;17.30;15.70;;;14.90;99.90;;;;;;5054766;28;20396;-68
2021/10/19 00:55:09;;;;;;;14.70;13.20;;;14.90;99.90;;;;;;5053494;28;20425;-68
2021/10/19 00:57:35;;;;;;;14.70;13.20;;;14.80;99.90;;;;;;5054644;28;20965;-68
2021/10/19 01:00:00;;;;;;;14.97;13.43;;;14.70;99.90;;;;;;5053849;28;20439;-78
2021/10/19 01:02:27;;;;;;;16.50;15.00;;;14.70;99.90;;;;;;5054471;28;20200;-68
2021/10/19 01:04:53;;;;;;;16.10;13.40;;;14.80;99.90;;;;;;5054069;28;20186;-68
2021/10/19 01:07:20;;;;;;;15.30;13.80;;;14.80;99.90;;;;;;5053442;28;20462;-68
2021/10/19 01:09:46;;;;;;;14.50;13.20;;;14.80;99.90;;;;;;5054167;28;20259;-68
2021/10/19 01:12:13;;;;;;;15.30;13.60;;;14.90;99.90;;;;;;5053424;28;20446;-68
2021/10/19 01:14:39;;;;;;;15.20;13.60;;;14.90;99.90;;;;;;5054468;28;20180;-68
2021/10/19 01:17:05;;;;;;;15.23;13.63;;;15.00;99.90;;;;;;5053389;28;20414;-69
2021/10/19 01:19:31;;;;;;;14.23;12.90;;;15.00;99.90;;;;;;5054240;28;20173;-67
2021/10/19 01:22:03;;;;;;;13.87;12.57;;;15.00;99.90;;;;;;5053958;28;20978;-67
2021/10/19 01:24:29;;;;;;;14.53;13.20;;;15.00;99.90;;;;;;5053260;28;20197;-68
2021/10/19 01:26:54;;;;;;;15.03;13.53;;;15.00;99.90;;;;;;5053598;28;20417;-68
2021/10/19 01:29:21;;;;;;;15.37;12.90;;;15.10;99.90;;;;;;5052895;28;21038;-68
2021/10/19 01:31:48;;;;;;;14.80;12.67;;;15.10;99.90;;;;;;5054038;28;20906;-68
2021/10/19 01:34:15;;;;;;;13.10;11.70;;;15.10;99.90;;;;;;5051818;28;20411;-68
2021/10/19 01:36:41;;;;;;;12.77;11.57;;;15.10;99.90;;;;;;5053558;28;20920;-68
2021/10/19 01:39:08;;;;;;;12.63;11.40;;;15.10;99.90;;;;;;5053103;28;20403;-68
2021/10/19 01:41:33;;;;;;;13.70;12.40;;;15.20;99.90;;;;;;5053521;28;20782;-68
2021/10/19 01:43:59;;;;;;;14.10;12.03;;;15.10;99.90;;;;;;5053513;28;20425;-68
2021/10/19 01:46:25;;;;;;;14.67;13.17;;;15.20;99.90;;;;;;5053046;28;20600;-68
2021/10/19 01:48:51;;;;;;;13.70;12.30;;;15.20;99.90;;;;;;5052237;28;20237;-68
2021/10/19 01:51:17;;;;;;;17.13;12.47;;;15.10;99.90;;;;;;5051470;28;20179;-68
2021/10/19 01:53:44;;;;;;;15.87;12.37;;;15.10;99.90;;;;;;5053290;28;20390;-68
2021/10/19 01:56:10;;;;;;;15.00;13.50;;;15.20;99.90;;;;;;5052756;28;20498;-68
2021/10/19 01:58:37;;;;;;;15.60;13.27;;;15.20;99.90;;;;;;5053491;28;20905;-68
2021/10/19 02:01:04;;;;;;;14.00;12.47;;;15.30;99.90;;;;;;5052949;28;20426;-79
2021/10/19 02:03:29;;;;;;;14.43;12.93;;;15.30;99.90;;;;;;5053453;28;20457;-68
2021/10/19 02:05:55;;;;;;;14.60;11.80;;;15.30;99.90;;;;;;5053329;28;20411;-68
2021/10/19 02:08:21;;;;;;;14.60;13.17;;;15.30;99.90;;;;;;5052405;28;20224;-68
2021/10/19 02:10:47;;;;;;;14.63;13.03;;;15.30;99.90;;;;;;5053609;28;20176;-68
2021/10/19 02:13:13;;;;;;;14.07;12.73;;;15.30;99.90;;;;;;5052741;28;20181;-68
2021/10/19 02:15:39;;;;;;;16.63;13.60;;;15.30;99.90;;;;;;5051218;28;20204;-68
2021/10/19 02:18:07;;;;;;;13.67;12.30;;;15.30;99.90;;;;;;5052557;28;20415;-79
2021/10/19 02:20:33;;;;;;;15.83;13.10;;;15.30;99.90;;;;;;5053250;28;20418;-68
2021/10/19 02:22:59;;;;;;;13.83;12.43;;;15.30;99.90;;;;;;5051853;28;20411;-67
2021/10/19 02:25:26;;;;;;;14.70;13.20;;;15.30;99.90;;;;;;5052278;28;20463;-68
2021/10/19 02:27:51;;;;;;;14.37;12.87;;;15.20;99.90;;;;;;5052846;28;20455;-68
2021/10/19 02:30:18;;;;;;;13.30;12.00;;;15.20;99.90;;;;;;5052217;28;20395;-68
2021/10/19 02:32:45;;;;;;;15.50;13.73;;;15.30;99.90;;;;;;5052908;28;20195;-68
2021/10/19 02:35:12;;;;;;;14.67;13.13;;;15.30;99.90;;;;;;5051702;28;20420;-68
2021/10/19 02:37:40;;;;;;;14.80;13.20;;;15.30;99.90;;;;;;5052746;28;20416;-67
2021/10/19 02:40:08;;;;;;;14.40;12.50;;;15.30;99.90;;;;;;5052285;28;20403;-78
2021/10/19 02:42:34;;;;;;;14.40;12.90;;;15.30;99.90;;;;;;5052461;28;20461;-68
2021/10/19 02:44:59;;;;;;;14.47;13.03;;;15.30;99.90;;;;;;5052316;28;20468;-68
2021/10/19 02:47:26;;;;;;;16.80;14.07;;;15.30;99.90;;;;;;5051692;28;20462;-68
2021/10/19 02:49:51;;;;;;;14.83;13.33;;;15.30;99.90;;;;;;5052720;28;20184;-68
2021/10/19 02:52:18;;;;;;;16.23;14.40;;;15.30;99.90;;;;;;5051286;28;20980;-68
2021/10/19 02:54:43;;;;;;;15.30;13.90;;;15.30;99.90;;;;;;5052289;28;20184;-68
2021/10/19 02:57:09;;;;;;;14.80;13.50;;;15.30;99.90;;;;;;5051693;28;20398;-69
2021/10/19 02:59:35;;;;;;;15.97;14.47;;;15.30;99.90;;;;;;5052713;28;20882;-68
2021/10/19 03:02:01;;;;;;;14.53;13.23;;;15.30;99.90;;;;;;5052115;28;20176;-67
2021/10/19 03:04:27;;;;;;;15.47;13.97;;;15.30;99.90;;;;;;5051368;28;20403;-68
2021/10/19 03:06:52;;;;;;;15.47;13.73;;;15.30;99.90;;;;;;5051932;28;20175;-68
2021/10/19 03:09:18;;;;;;;15.00;13.20;;;15.30;99.90;;;;;;5050301;28;20216;-69
2021/10/19 03:11:44;;;;;;;16.07;14.40;;;15.40;99.90;;;;;;5052324;28;20176;-68
2021/10/19 03:14:11;;;;;;;16.57;13.20;;;15.30;99.90;;;;;;5051246;28;20186;-75
2021/10/19 03:16:36;;;;;;;15.00;13.50;;;15.30;99.90;;;;;;5052510;28;20238;-68
2021/10/19 03:19:03;;;;;;;16.00;14.50;;;15.40;99.90;;;;;;5051788;28;20430;-68
2021/10/19 03:21:29;;;;;;;15.30;13.63;;;15.30;99.90;;;;;;5051240;28;20172;-68
2021/10/19 03:23:55;;;;;;;15.00;13.50;;;15.30;99.90;;;;;;5051891;28;20438;-68
2021/10/19 03:26:21;;;;;;;16.07;14.47;;;15.30;99.90;;;;;;5050022;28;20836;-68
2021/10/19 03:28:46;;;;;;;15.80;14.20;;;15.30;99.90;;;;;;5052017;28;20252;-68
2021/10/19 03:31:12;;;;;;;15.57;13.47;;;15.40;99.90;;;;;;5051521;28;20179;-69
2021/10/19 03:33:38;;;;;;;15.10;13.70;;;15.30;99.90;;;;;;5051919;28;20539;-68
2021/10/19 03:36:06;;;;;;;14.83;13.43;;;15.20;99.90;;;;;;5052080;28;20176;-68
2021/10/19 03:38:33;;;;;;;15.67;14.17;;;15.20;99.90;;;;;;5051260;28;20414;-68
2021/10/19 03:40:58;;;;;;;16.03;14.10;;;15.20;99.90;;;;;;5051695;28;20449;-69
2021/10/19 03:43:24;;;;;;;15.20;13.70;;;15.20;99.90;;;;;;5050649;28;20454;-68
2021/10/19 03:45:50;;;;;;;15.93;14.40;;;15.20;99.90;;;;;;5052469;28;20223;-68
2021/10/19 03:48:15;;;;;;;15.87;14.17;;;15.20;99.90;;;;;;5053013;28;20231;-68
2021/10/19 03:50:41;;;;;;;14.83;13.50;;;15.30;99.90;;;;;;5056383;28;20612;-68
2021/10/19 03:53:09;;;;;;;15.17;13.60;;;15.30;99.90;;;;;;5055054;28;20612;-69
2021/10/19 03:55:35;;;;;;;14.60;13.20;;;15.30;99.90;;;;;;5054852;28;20208;-68
2021/10/19 03:58:01;;;;;;;14.93;13.33;;;15.10;99.90;;;;;;5056224;28;20443;-69
2021/10/19 04:00:26;;;;;;;16.70;15.10;;;15.10;99.90;;;;;;5055519;28;20246;-69
2021/10/19 04:02:52;;;;;;;13.90;12.50;;;15.10;99.90;;;;;;5056174;28;20169;-68
2021/10/19 04:05:18;;;;;;;16.20;14.57;;;15.20;99.90;;;;;;5055144;28;20175;-68
2021/10/19 04:07:45;;;;;;;18.73;17.07;;;15.10;99.90;;;;;;5055932;28;20203;-68
2021/10/19 04:10:14;;;;;;;14.43;12.60;;;15.20;99.90;;;;;;5055386;28;20186;-69
2021/10/19 04:12:39;;;;;;;19.17;17.47;;;15.10;99.90;;;;;;5054754;28;20902;-68
2021/10/19 04:15:06;;;;;;;19.10;17.10;;;15.00;99.90;;;;;;5055741;28;20508;-68
2021/10/19 04:17:32;;;;;;;17.87;13.70;;;15.00;99.90;;;;;;5055282;28;20642;-68
2021/10/19 04:19:58;;;;;;;18.67;17.00;;;15.00;99.90;;;;;;5055902;28;20405;-68
2021/10/19 04:22:23;;;;;;;16.87;15.27;;;14.90;99.90;;;;;;5055191;28;20169;-68
2021/10/19 04:24:52;;;;;;;16.63;14.20;;;15.00;99.90;;;;;;5055802;28;20860;-68
2021/10/19 04:27:18;;;;;;;18.77;16.87;;;15.00;99.90;;;;;;5055193;28;20221;-69
2021/10/19 04:29:43;;;;;;;18.90;16.90;;;15.00;99.90;;;;;;5054224;28;20749;-68
2021/10/19 04:32:09;;;;;;;18.97;17.13;;;15.10;99.90;;;;;;5055734;28;20485;-68
2021/10/19 04:34:35;;;;;;;16.00;13.60;;;15.10;99.90;;;;;;5055662;28;20166;-68
2021/10/19 04:37:01;;;;;;;18.27;16.50;;;14.90;99.90;;;;;;5055631;28;20402;-68
2021/10/19 04:39:28;;;;;;;17.47;15.77;;;15.00;99.90;;;;;;5054870;28;20222;-68
2021/10/19 04:41:54;;;;;;;16.73;14.90;;;15.00;99.90;;;;;;5055555;28;20614;-68
2021/10/19 04:44:20;;;;;;;18.27;16.37;;;14.90;99.90;;;;;;5054362;28;20453;-68
2021/10/19 04:46:46;;;;;;;16.70;14.30;;;15.00;99.90;;;;;;5054607;28;20531;-69
2021/10/19 04:49:11;;;;;;;17.43;15.63;;;15.00;99.90;;;;;;5054649;28;20936;-86
2021/10/19 04:51:37;;;;;;;17.30;15.60;;;15.00;99.90;;;;;;5055347;28;20178;-68
2021/10/19 04:54:03;;;;;;;18.63;16.20;;;15.00;99.90;;;;;;5055130;28;20420;-68
2021/10/19 04:56:29;;;;;;;18.23;16.33;;;15.00;99.90;;;;;;5054360;28;20627;-72
2021/10/19 04:58:54;;;;;;;17.30;15.37;;;15.00;99.90;;;;;;5054259;28;20192;-69
2021/10/19 05:01:20;;;;;;;16.63;14.93;;;15.00;99.90;;;;;;5053840;28;20603;-68
2021/10/19 05:03:49;;;;;;;15.47;14.10;;;15.00;99.90;;;;;;5054831;28;20184;-69
2021/10/19 05:06:15;;;;;;;16.03;14.33;;;15.00;99.90;;;;;;5053129;28;20180;-72
2021/10/19 05:08:41;;;;;;;18.07;16.27;;;15.00;99.90;;;;;;5053370;28;20458;-71
2021/10/19 05:11:07;;;;;;;17.67;15.97;;;15.00;99.90;;;;;;5053833;28;20398;-69
2021/10/19 05:13:33;;;;;;;14.97;13.20;;;15.00;99.90;;;;;;5053985;28;20179;-68
2021/10/19 05:15:58;;;;;;;18.73;17.03;;;15.10;99.90;;;;;;5054812;28;20446;-68
2021/10/19 05:18:24;;;;;;;16.60;14.90;;;15.10;99.90;;;;;;5054173;28;20400;-69
2021/10/19 05:20:50;;;;;;;16.87;13.90;;;15.10;99.90;;;;;;5054668;28;20250;-68
2021/10/19 05:23:16;;;;;;;18.30;16.50;;;15.10;99.90;;;;;;5053744;28;20398;-69
2021/10/19 05:25:42;;;;;;;14.33;12.90;;;15.10;99.90;;;;;;5054614;28;20576;-69
2021/10/19 05:28:08;;;;;;;16.83;15.10;;;15.10;99.90;;;;;;5054199;28;20200;-68
2021/10/19 05:30:34;;;;;;;15.50;12.93;;;15.20;99.90;;;;;;5053527;28;20491;-69
2021/10/19 05:33:01;;;;;;;18.47;16.70;;;15.20;99.90;;;;;;5053314;28;20490;-68
2021/10/19 05:35:27;;;;;;;16.50;14.80;;;15.20;99.90;;;;;;5053552;28;20410;-68
2021/10/19 05:37:52;;;;;;;9.43;8.53;;;15.20;99.90;;;;;;5054454;28;20940;-68
2021/10/19 05:40:18;;;;;;;10.50;9.70;;;15.20;99.90;;;;;;5053463;28;20199;-69
2021/10/19 05:42:44;;;;;;;10.57;9.77;;;15.20;99.90;;;;;;5053633;28;20608;-68
2021/10/19 05:45:09;;;;;;;9.60;8.80;;;15.20;99.90;;;;;;5052651;28;20261;-69
2021/10/19 05:47:35;;;;;;;8.80;8.10;;;15.20;99.90;;;;;;5053541;28;20215;-69
2021/10/19 05:50:01;;;;;;;7.63;7.03;;;15.20;99.90;;;;;;5054072;28;20173;-69
2021/10/19 05:52:27;;;;;;;7.63;7.03;;;15.20;99.90;;;;;;5053045;28;20179;-69
2021/10/19 05:54:53;;;;;;;9.90;9.10;;;15.10;99.90;;;;;;5053604;28;20186;-70
2021/10/19 05:57:19;;;;;;;9.33;8.73;;;15.10;99.90;;;;;;5053357;28;20870;-70
2021/10/19 05:59:44;;;;;;;9.20;8.50;;;15.20;99.90;;;;;;5053504;28;20229;-69
2021/10/19 06:02:10;;;;;;;8.20;7.50;;;15.20;99.90;;;;;;5053553;28;20428;-70
2021/10/19 06:04:36;;;;;;;9.07;8.20;;;15.20;99.90;;;;;;5052861;28;20686;-71
2021/10/19 06:07:02;;;;;;;8.30;7.60;;;15.10;99.90;;;;;;5052964;28;20422;-70
2021/10/19 06:09:29;;;;;;;9.47;8.60;;;15.00;99.90;;;;;;5052227;28;20295;-73
2021/10/19 06:11:55;;;;;;;8.27;7.47;;;15.20;99.90;;;;;;5052554;28;20923;-72
2021/10/19 06:14:23;;;;;;;8.47;7.77;;;15.30;99.90;;;;;;5051429;28;20441;-73
2021/10/19 06:16:50;;;;;;;7.80;7.13;;;15.50;99.90;;;;;;5051929;28;20510;-72
2021/10/19 06:19:16;;;;;;;8.10;7.43;;;15.70;99.90;;;;;;5053260;28;20428;-72
2021/10/19 06:21:42;;;;;;;7.70;7.03;;;15.80;99.90;;;;;;5053418;28;20858;-72
2021/10/19 06:24:09;;;;;;;8.13;7.50;;;16.00;99.90;;;;;;5052589;28;20415;-72
2021/10/19 06:26:36;;;;;;;8.27;7.47;;;16.10;99.90;;;;;;5052082;28;20427;-72
2021/10/19 06:29:10;;;;;;;8.00;7.30;;;16.10;99.90;;;;;;5053248;28;21006;-72
2021/10/19 06:31:37;;;;;;;7.70;7.10;;;16.30;99.90;;;;;;5052736;28;20445;-73
2021/10/19 06:34:03;;;;;;;7.23;6.63;;;16.40;99.90;;;;;;5053321;28;20412;-73
2021/10/19 06:36:29;;;;;;;6.90;6.40;;;16.50;99.90;;;;;;5052699;28;20408;-72
2021/10/19 06:38:55;;;;;;;6.80;6.20;;;16.60;99.90;;;;;;5053188;28;20464;-72
2021/10/19 06:41:21;;;;;;;7.13;6.53;;;16.70;99.90;;;;;;5052539;28;20244;-73
2021/10/19 06:43:47;;;;;;;8.13;6.30;;;16.70;99.90;;;;;;5052789;28;20487;-73
2021/10/19 06:46:13;;;;;;;7.00;5.20;;;16.80;99.90;;;;;;5053485;28;20506;-73
2021/10/19 06:48:39;;;;;;;5.40;5.00;;;16.50;99.90;;;;;;5052209;28;20627;-72
2021/10/19 06:51:06;;;;;;;5.43;5.03;;;16.50;99.90;;;;;;5052968;28;20435;-72
2021/10/19 06:53:32;;;;;;;5.60;5.10;;;16.60;99.90;;;;;;5051172;28;20438;-69
2021/10/19 06:55:58;;;;;;;4.73;4.43;;;16.60;99.90;;;;;;5052956;28;20174;-69
2021/10/19 06:58:25;;;;;;;6.00;5.70;;;16.60;99.90;;;;;;5052075;28;20446;-69
2021/10/19 07:00:55;;;;;;;6.00;5.60;;;16.50;99.90;;;;;;5052869;28;20412;-69
2021/10/19 07:03:23;;;;;;;5.13;4.83;;;16.40;99.90;;;;;;5051831;28;20416;-69
2021/10/19 07:05:49;;;;;;;5.33;4.83;;;16.20;99.90;;;;;;5052816;28;20503;-69
2021/10/19 07:08:15;;;;;;;5.27;4.87;;;16.10;99.90;;;;;;5052044;28;20546;-69
2021/10/19 07:10:40;;;;;;;5.83;5.47;;;16.10;99.90;;;;;;5051153;28;20234;-69
2021/10/19 07:13:06;;;;;;;5.10;4.70;;;16.10;99.90;;;;;;5050741;28;20527;-69
2021/10/19 07:15:35;;;;;;;4.47;4.17;;;16.00;99.90;;;;;;5050754;28;20184;-68
2021/10/19 07:18:05;;;;;;;4.47;4.07;;;16.00;99.90;;;;;;5050146;28;20192;-68
2021/10/19 07:20:31;;;;;;;7.67;4.83;;;15.90;99.90;;;;;;5049478;28;20418;-68
2021/10/19 07:22:59;;;;;;;4.70;4.40;;;15.90;99.90;;;;;;5051799;28;20738;-68
2021/10/19 07:25:26;;;;;;;4.60;4.20;;;15.90;99.90;;;;;;5051626;28;20488;-69
2021/10/19 07:27:52;;;;;;;4.17;3.97;;;15.90;99.90;;;;;;5052719;28;20790;-68
2021/10/19 07:30:18;;;;;;;4.40;4.20;;;15.80;99.90;;;;;;5052169;28;20745;-68
2021/10/19 07:32:45;;;;;;;4.27;3.87;;;15.80;99.90;;;;;;5051410;28;20422;-69
2021/10/19 07:35:12;;;;;;;4.03;3.73;;;15.80;99.90;;;;;;5051898;28;20410;-68
2021/10/19 07:37:39;;;;;;;3.60;3.40;;;15.80;99.90;;;;;;5050571;28;20419;-68
2021/10/19 07:40:06;;;;;;;5.70;5.40;;;15.80;99.90;;;;;;5052369;28;20423;-69
2021/10/19 07:42:33;;;;;;;5.30;5.10;;;15.80;99.90;;;;;;5051630;28;20415;-68
2021/10/19 07:45:04;;;;;;;4.20;3.90;;;15.90;99.90;;;;;;5052127;28;20950;-68
2021/10/19 07:47:30;;;;;;;4.40;4.20;;;15.90;99.90;;;;;;5051250;28;20451;-69
2021/10/19 07:49:55;;;;;;;4.30;4.10;;;15.90;99.90;;;;;;5052109;28;20472;-68
2021/10/19 07:52:22;;;;;;;4.43;4.13;;;15.90;99.90;;;;;;5052356;28;20182;-68
2021/10/19 07:54:47;;;;;;;4.47;4.23;;;15.90;99.90;;;;;;5052029;28;20172;-69
2021/10/19 07:57:13;;;;;;;4.40;4.20;;;15.90;99.90;;;;;;5051525;28;20981;-68
2021/10/19 07:59:39;;;;;;;4.50;4.30;;;15.90;99.90;;;;;;5051165;28;20170;-68
2021/10/19 08:02:04;;;;;;;4.00;3.80;;;15.90;99.90;;;;;;5051849;28;20260;-68
2021/10/19 08:04:30;;;;;;;4.80;4.60;;;16.00;99.90;;;;;;5050794;28;20181;-69
2021/10/19 08:06:56;;;;;;;3.00;2.90;;;16.00;99.90;;;;;;5050605;28;20188;-69
2021/10/19 08:09:21;;;;;;;3.97;3.70;;;16.00;99.90;;;;;;5051283;28;20205;-68
2021/10/19 08:11:47;;;;;;;3.97;3.60;;;16.00;99.90;;;;;;5049508;28;20181;-68
2021/10/19 08:14:13;;;;;;;3.70;3.43;;;16.00;99.90;;;;;;5051423;28;20625;-68
2021/10/19 08:16:39;;;;;;;4.50;4.23;;;16.00;99.90;;;;;;5050846;28;20207;-70
2021/10/19 08:19:05;;;;;;;4.33;4.10;;;16.00;99.90;;;;;;5050284;28;20514;-70
2021/10/19 08:21:31;;;;;;;4.20;4.00;;;16.00;99.90;;;;;;5050838;28;20503;-70
2021/10/19 08:23:58;;;;;;;5.00;4.70;;;16.00;99.90;;;;;;5051595;28;20184;-70
2021/10/19 08:26:29;;;;;;;5.20;4.80;;;16.00;99.90;;;;;;5050330;28;20420;-74
2021/10/19 08:28:56;;;;;;;5.53;5.13;;;16.00;99.90;;;;;;5050443;28;20444;-70
2021/10/19 08:31:22;;;;;;;3.70;3.40;;;16.00;99.90;;;;;;5051233;28;20419;-70
2021/10/19 08:33:50;;;;;;;3.10;3.00;;;16.10;99.90;;;;;;5051526;28;21201;-70
2021/10/19 08:36:17;;;;;;;3.17;3.07;;;16.00;99.90;;;;;;5053942;28;20617;-70
2021/10/19 08:38:43;;;;;;;3.60;3.50;;;16.00;99.90;;;;;;5054464;28;20412;-69
2021/10/19 08:41:11;;;;;;;3.60;3.50;;;16.10;99.90;;;;;;5054765;28;20590;-68
2021/10/19 08:43:38;;;;;;;3.20;3.10;;;16.10;99.90;;;;;;5053835;28;20419;-68
2021/10/19 08:46:07;;;;;;;4.13;3.83;;;16.00;99.90;;;;;;5053289;28;20513;-68
2021/10/19 08:48:33;;;;;;;3.50;3.33;;;16.00;99.90;;;;;;5054109;28;20454;-69
2021/10/19 08:50:59;;;;;;;3.83;3.63;;;16.10;99.90;;;;;;5054817;28;20408;-68
2021/10/19 08:53:25;;;;;;;3.80;3.60;;;16.10;99.90;;;;;;5054635;28;20479;-68
2021/10/19 08:55:51;;;;;;;3.17;3.00;;;16.10;99.90;;;;;;5054229;28;20408;-68
2021/10/19 08:58:17;;;;;;;3.00;2.90;;;16.10;99.90;;;;;;5054517;28;20415;-68
2021/10/19 09:00:43;;;;;;;3.10;3.00;;;16.20;99.90;;;;;;5053764;28;20419;-69
2021/10/19 09:03:09;;;;;;;5.30;4.80;;;16.20;99.90;;;;;;5054689;28;20637;-68
2021/10/19 09:05:36;;;;;;;4.13;3.93;;;16.20;99.90;;;;;;5053673;28;20505;-69
2021/10/19 09:08:05;;;;;;;3.33;3.23;;;16.20;99.90;;;;;;5053429;28;20454;-70
2021/10/19 09:10:38;;;;;;;3.00;2.90;;;16.20;99.90;;;;;;5053602;28;20836;-76
2021/10/19 09:13:13;;;;;;;2.90;2.80;;;16.20;99.90;;;;;;5054590;28;20444;-69
2021/10/19 09:15:40;;;;;;;3.90;3.77;;;16.20;99.90;;;;;;5053800;28;20419;-67
2021/10/19 09:18:09;;;;;;;2.90;2.80;;;16.20;99.90;;;;;;5054325;28;20416;-69
2021/10/19 09:20:48;;;;;;;3.07;2.97;;;16.20;99.90;;;;;;5052337;28;20412;-68
2021/10/19 09:23:17;;;;;;;3.17;3.07;;;16.20;99.90;;;;;;5054357;28;20408;-68
2021/10/19 09:25:45;;;;;;;3.07;2.97;;;16.30;99.90;;;;;;5053109;28;20954;-68
2021/10/19 09:28:33;;;;;;;3.10;3.00;;;16.20;99.90;;;;;;5054045;28;20943;-68
2021/10/19 09:30:59;;;;;;;3.90;3.70;;;16.20;99.90;;;;;;5053987;28;20424;-68
2021/10/19 09:33:25;;;;;;;3.60;3.50;;;16.30;99.90;;;;;;5054507;28;20465;-68
2021/10/19 09:35:58;;;;;;;4.10;3.90;;;16.30;99.90;;;;;;5053527;28;20420;-68
2021/10/19 09:38:24;;;;;;;4.40;4.20;;;16.40;99.90;;;;;;5054336;28;20177;-68
2021/10/19 09:40:53;;;;;;;4.60;4.33;;;16.30;99.90;;;;;;5053610;28;20794;-68
2021/10/19 09:43:32;;;;;;;4.90;4.60;;;16.30;99.90;;;;;;5054261;28;20465;-68
2021/10/19 09:45:59;;;;;;;3.77;3.57;;;16.40;99.90;;;;;;5053603;28;20843;-68
2021/10/19 09:48:31;;;;;;;4.73;4.53;;;16.40;99.90;;;;;;5054026;28;20958;-67
2021/10/19 09:50:58;;;;;;;4.73;4.53;;;16.40;99.90;;;;;;5054121;28;20967;-67
2021/10/19 09:53:25;;;;;;;3.67;3.47;;;16.40;99.90;;;;;;5054046;28;20420;-67
2021/10/19 09:55:52;;;;;;;3.57;3.20;;;16.40;99.90;;;;;;5053062;28;20408;-67
2021/10/19 09:58:19;;;;;;;3.00;2.90;;;16.40;99.90;;;;;;5053829;28;20415;-67
2021/10/19 10:00:45;;;;;;;2.97;2.87;;;16.40;99.90;;;;;;5053284;28;20408;-67
2021/10/19 10:03:12;;;;;;;3.07;2.97;;;16.50;99.90;;;;;;5053844;28;20486;-67
2021/10/19 10:05:39;;;;;;;3.40;3.30;;;16.50;99.90;;;;;;5053205;28;20405;-67
2021/10/19 10:08:08;;;;;;;3.33;3.23;;;16.50;99.90;;;;;;5053621;28;20452;-67
2021/10/19 10:10:34;;;;;;;3.47;3.37;;;16.60;99.90;;;;;;5053107;28;20922;-67
2021/10/19 10:13:12;;;;;;;3.20;3.10;;;16.50;99.90;;;;;;5053697;28;20416;-67
2021/10/19 10:15:38;;;;;;;4.70;4.60;;;16.60;99.90;;;;;;5053153;28;20496;-67
2021/10/19 10:18:07;;;;;;;2.33;2.30;;;16.60;99.90;;;;;;5053534;28;20518;-67
2021/10/19 10:20:37;;;;;;;3.00;2.90;;;16.60;99.90;;;;;;5052890;28;20173;-68
2021/10/19 10:23:20;;;;;;;4.93;4.80;;;16.70;99.90;;;;;;5053178;28;20408;-67
2021/10/19 10:25:48;;;;;;;4.17;4.07;;;16.70;99.90;;;;;;5052870;28;20400;-67
2021/10/19 10:28:36;;;;;;;3.00;2.80;;;16.70;99.90;;;;;;5052008;28;20475;-67
2021/10/19 10:31:06;;;;;;;2.40;2.30;;;16.70;99.90;;;;;;5053317;28;20411;-67
2021/10/19 10:33:37;;;;;;;2.67;2.57;;;16.70;99.90;;;;;;5052701;28;20420;-80
2021/10/19 10:36:11;;;;;;;5.10;4.90;;;16.80;99.90;;;;;;5053534;28;20756;-67
2021/10/19 10:38:50;;;;;;;3.07;2.97;;;16.70;99.90;;;;;;5051432;28;20751;-67
2021/10/19 10:41:16;;;;;;;2.43;2.33;;;16.70;99.90;;;;;;5053185;28;20880;-67
2021/10/19 10:43:43;;;;;;;4.50;4.40;;;16.70;99.90;;;;;;5052124;28;20424;-67
2021/10/19 10:46:15;;;;;;;4.63;4.43;;;16.70;99.90;;;;;;5052944;28;20209;-67
2021/10/19 10:48:41;;;;;;;3.37;3.27;;;16.70;99.90;;;;;;5052484;28;20444;-67
2021/10/19 10:51:09;;;;;;;3.90;3.80;;;16.70;99.90;;;;;;5053047;28;20400;-67
2021/10/19 10:53:43;;;;;;;2.50;2.40;;;16.60;99.90;;;;;;5052360;28;20450;-67
2021/10/19 10:56:12;;;;;;;3.00;2.90;;;16.60;99.90;;;;;;5052924;28;20415;-67
2021/10/19 10:58:40;;;;;;;6.03;5.83;;;16.70;99.90;;;;;;5052229;28;20416;-67
2021/10/19 11:01:21;;;;;;;3.07;2.97;;;16.70;99.90;;;;;;5052848;28;20412;-69
2021/10/19 11:03:53;;;;;;;3.47;3.37;;;16.60;99.90;;;;;;5052208;28;20396;-67
2021/10/19 11:06:21;;;;;;;4.50;4.20;;;16.60;99.90;;;;;;5052853;28;20449;-67
2021/10/19 11:08:47;;;;;;;2.70;2.60;;;16.70;99.90;;;;;;5052050;28;20497;-69
2021/10/19 11:11:20;;;;;;;2.90;2.73;;;16.70;99.90;;;;;;5052750;28;20515;-68
2021/10/19 11:13:58;;;;;;;3.10;3.00;;;16.60;99.90;;;;;;5051780;28;20455;-69
2021/10/19 11:16:32;;;;;;;3.10;3.00;;;16.60;99.90;;;;;;5052388;28;20422;-68
2021/10/19 11:19:00;;;;;;;3.40;3.20;;;16.60;99.90;;;;;;5052094;28;20392;-69
2021/10/19 11:21:26;;;;;;;3.50;3.30;;;16.60;99.90;;;;;;5052261;28;20412;-68
2021/10/19 11:23:51;;;;;;;3.10;3.00;;;16.60;99.90;;;;;;5051994;28;20765;-69
2021/10/19 11:26:17;;;;;;;2.93;2.83;;;16.60;99.90;;;;;;5052549;28;20393;-69
2021/10/19 11:28:44;;;;;;;2.90;2.80;;;16.70;99.90;;;;;;5051845;28;20236;-69
2021/10/19 11:31:12;;;;;;;4.10;4.00;;;16.70;99.90;;;;;;5052425;28;20401;-69
2021/10/19 11:33:40;;;;;;;2.40;2.30;;;16.70;99.90;;;;;;5051554;28;20408;-69
2021/10/19 11:36:06;;;;;;;2.93;2.73;;;16.80;99.90;;;;;;5052363;28;20491;-69
2021/10/19 11:38:39;;;;;;;1.70;1.70;;;16.80;99.90;;;;;;5052436;28;20505;-69
2021/10/19 11:41:10;;;;;;;3.00;2.90;;;16.80;99.90;;;;;;5052458;28;20775;-69
2021/10/19 11:43:45;;;;;;;2.57;2.47;;;16.80;99.90;;;;;;5051681;28;20895;-76
2021/10/19 11:46:14;;;;;;;2.73;2.63;;;16.80;99.90;;;;;;5052365;28;20460;-69
2021/10/19 11:48:40;;;;;;;3.10;3.00;;;16.90;99.90;;;;;;5051744;28;20559;-69
2021/10/19 11:51:11;;;;;;;2.90;2.80;;;16.90;99.90;;;;;;5052293;28;20436;-69
2021/10/19 11:53:44;;;;;;;3.10;3.00;;;16.90;99.90;;;;;;5051787;28;20400;-73
2021/10/19 11:56:11;;;;;;;3.50;3.40;;;16.90;99.90;;;;;;5052355;28;20400;-68
2021/10/19 11:58:51;;;;;;;4.70;4.60;;;16.90;99.90;;;;;;5050715;28;20415;-85
2021/10/19 12:01:18;;;;;;;2.80;2.70;;;16.90;99.90;;;;;;5052367;28;20400;-69
2021/10/19 12:04:04;;;;;;;3.50;3.40;;;16.90;99.90;;;;;;5051603;28;20888;-69
2021/10/19 12:06:33;;;;;;;3.10;3.00;;;16.90;99.90;;;;;;5052268;28;20401;-68
2021/10/19 12:09:11;;;;;;;3.10;3.00;;;16.90;99.90;;;;;;5052453;28;20444;-69
2021/10/19 12:11:37;;;;;;;5.10;3.00;;;16.90;99.90;;;;;;5055947;28;20850;-69
2021/10/19 12:14:05;;;;;;;3.27;3.17;;;16.90;99.90;;;;;;5055782;28;20510;-68
2021/10/19 12:16:32;;;;;;;3.10;3.00;;;17.00;99.90;;;;;;5056236;28;20416;-69
2021/10/19 12:19:00;;;;;;;4.00;3.90;;;17.10;99.90;;;;;;5055302;28;20428;-69
2021/10/19 12:21:27;;;;;;;3.70;3.60;;;17.10;99.90;;;;;;5055762;28;20411;-69
2021/10/19 12:23:57;;;;;;;3.50;3.40;;;17.00;99.90;;;;;;5055150;28;20408;-68
2021/10/19 12:26:25;;;;;;;3.40;3.27;;;17.10;99.90;;;;;;5055659;28;20419;-69
2021/10/19 12:28:56;;;;;;;4.23;4.03;;;17.00;99.90;;;;;;5054814;28;20455;-69
2021/10/19 12:31:24;;;;;;;3.57;3.47;;;17.00;99.90;;;;;;5055803;28;20458;-69
2021/10/19 12:34:01;;;;;;;3.33;3.23;;;17.10;99.90;;;;;;5054915;28;20412;-69
2021/10/19 12:36:29;;;;;;;3.70;3.60;;;17.10;99.90;;;;;;5055475;28;20414;-69
2021/10/19 12:38:58;;;;;;;3.73;3.43;;;17.20;99.90;;;;;;5054820;28;20417;-69